Time;durP1;ratioP1;P1;durP2;ratioP2;P2;SDS_P1;SDS_P2;PMS_P1;PMS_P2;Temp;Humidity;BMP_temperature;BMP_pressure;BME280_temperature;BME280_humidity;BME280_pressure;Samples;Min_cycle;Max_cycle;Signal;HPM_P1;HPM_P2
2022/04/21 00:01:32;;;;;;;4.32;2.88;;;10.20;99.90;;;;;;5015443;28;20029;-76
2022/04/21 00:03:58;;;;;;;5.80;2.55;;;10.10;99.90;;;;;;5016647;28;20044;-75
2022/04/21 00:06:23;;;;;;;5.13;2.38;;;10.10;99.90;;;;;;5016424;28;20053;-75
2022/04/21 00:08:49;;;;;;;5.63;2.58;;;10.10;99.90;;;;;;5015123;28;20049;-75
2022/04/21 00:11:14;;;;;;;5.97;3.15;;;10.00;99.90;;;;;;5016138;28;20071;-75
2022/04/21 00:13:40;;;;;;;5.82;2.70;;;9.90;99.90;;;;;;5016771;28;20030;-75
2022/04/21 00:16:05;;;;;;;8.80;2.47;;;9.90;99.90;;;;;;5014793;28;20108;-76
2022/04/21 00:18:31;;;;;;;6.88;2.35;;;9.80;99.90;;;;;;5016153;28;20104;-76
2022/04/21 00:20:59;;;;;;;4.88;2.20;;;9.80;99.90;;;;;;5014870;28;20475;-75
2022/04/21 00:23:28;;;;;;;6.13;2.35;;;9.80;99.90;;;;;;5016038;28;20399;-75
2022/04/21 00:25:54;;;;;;;;;;;9.80;99.90;;;;;;5016350;28;20025;-75
2022/04/21 00:28:20;;;;;;;6.32;2.58;;;9.70;99.90;;;;;;5016648;28;19905;-76
2022/04/21 00:30:45;;;;;;;7.57;3.00;;;9.70;99.90;;;;;;5014642;28;20022;-76
2022/04/21 00:33:11;;;;;;;9.05;2.78;;;9.70;99.90;;;;;;5015705;28;20030;-76
2022/04/21 00:35:37;;;;;;;10.15;3.67;;;9.60;99.90;;;;;;5015167;28;20026;-75
2022/04/21 00:38:02;;;;;;;5.30;2.60;;;9.60;99.90;;;;;;5016066;28;20056;-75
2022/04/21 00:40:29;;;;;;;6.65;2.55;;;9.50;99.90;;;;;;5014797;28;20022;-75
2022/04/21 00:42:56;;;;;;;5.47;2.75;;;9.50;99.90;;;;;;5014322;28;20394;-75
2022/04/21 00:45:22;;;;;;;4.95;2.50;;;9.40;99.90;;;;;;5015803;28;20037;-75
2022/04/21 00:47:50;;;;;;;5.97;2.20;;;9.40;99.90;;;;;;5014402;28;20396;-75
2022/04/21 00:50:24;;;;;;;6.85;2.70;;;9.30;99.90;;;;;;5015628;28;20026;-75
2022/04/21 00:52:52;;;;;;;6.45;3.55;;;9.30;99.90;;;;;;5014287;28;20048;-75
2022/04/21 00:55:19;;;;;;;5.07;1.92;;;9.30;99.90;;;;;;5015460;28;20022;-75
2022/04/21 00:57:47;;;;;;;14.80;2.90;;;9.30;99.90;;;;;;5015474;28;20069;-75
2022/04/21 01:00:13;;;;;;;5.82;2.72;;;9.30;99.90;;;;;;5015694;28;20026;-75
2022/04/21 01:02:46;;;;;;;9.63;2.40;;;9.20;99.90;;;;;;5015160;28;20109;-75
2022/04/21 01:05:20;;;;;;;9.48;2.90;;;9.60;99.90;;;;;;5015705;28;20034;-75
2022/04/21 01:07:46;;;;;;;4.78;2.13;;;9.10;99.90;;;;;;5014086;28;20029;-75
2022/04/21 01:10:12;;;;;;;4.63;2.13;;;9.00;99.90;;;;;;5015130;28;20387;-75
2022/04/21 01:12:40;;;;;;;4.80;2.15;;;9.00;99.90;;;;;;5015162;28;20030;-75
2022/04/21 01:15:06;;;;;;;8.55;2.92;;;9.00;99.90;;;;;;5015412;28;20057;-75
2022/04/21 01:17:34;;;;;;;8.13;2.15;;;9.00;99.90;;;;;;5015311;28;20443;-75
2022/04/21 01:20:00;;;;;;;5.68;2.95;;;9.00;99.90;;;;;;5014023;28;20096;-75
2022/04/21 01:22:27;;;;;;;6.43;2.38;;;9.00;99.90;;;;;;5015300;28;20360;-75
2022/04/21 01:24:52;;;;;;;8.75;2.88;;;9.00;99.90;;;;;;5014774;28;20026;-75
2022/04/21 01:27:18;;;;;;;4.75;2.05;;;8.90;99.90;;;;;;5013837;28;20072;-75
2022/04/21 01:29:43;;;;;;;7.28;2.25;;;8.90;99.90;;;;;;5015710;28;20029;-75
2022/04/21 01:32:09;;;;;;;7.30;2.83;;;8.90;99.90;;;;;;5015068;28;20045;-75
2022/04/21 01:34:37;;;;;;;5.40;2.90;;;8.90;99.90;;;;;;5014831;28;20080;-76
2022/04/21 01:42:31;;;;;;;8.27;2.30;;;8.80;99.90;;;;;;5014635;28;20040;-75
2022/04/21 01:44:56;;;;;;;6.38;2.65;;;8.80;99.90;;;;;;5015311;28;20415;-75
2022/04/21 01:47:22;;;;;;;6.60;2.53;;;8.70;99.90;;;;;;5013490;28;20018;-75
2022/04/21 01:49:47;;;;;;;5.95;2.58;;;8.70;99.90;;;;;;5014838;28;20022;-75
2022/04/21 01:52:13;;;;;;;7.60;2.70;;;8.70;99.90;;;;;;5014498;28;20028;-75
2022/04/21 01:54:39;;;;;;;6.38;2.95;;;8.70;99.90;;;;;;5015100;28;20030;-75
2022/04/21 01:57:05;;;;;;;4.57;2.22;;;8.60;99.90;;;;;;5014856;28;20026;-75
2022/04/21 01:59:31;;;;;;;5.78;2.53;;;8.50;99.90;;;;;;5013535;28;20026;-75
2022/04/21 02:01:56;;;;;;;5.13;2.22;;;8.50;99.90;;;;;;5014509;28;20033;-75
2022/04/21 02:04:22;;;;;;;5.15;2.40;;;8.50;99.90;;;;;;5013157;28;20022;-75
2022/04/21 02:06:48;;;;;;;4.22;1.98;;;8.40;99.90;;;;;;5014917;28;20032;-75
2022/04/21 02:09:14;;;;;;;8.02;2.63;;;8.40;99.90;;;;;;5014366;28;20025;-75
2022/04/21 02:11:40;;;;;;;5.90;2.53;;;8.30;99.90;;;;;;5013290;28;20022;-75
2022/04/21 02:14:06;;;;;;;8.30;3.42;;;8.20;99.90;;;;;;5014322;28;20022;-75
2022/04/21 02:16:31;;;;;;;5.45;2.25;;;8.20;99.90;;;;;;5012978;28;20030;-75
2022/04/21 02:18:57;;;;;;;5.72;2.40;;;8.10;99.90;;;;;;5014886;28;20026;-75
2022/04/21 02:21:22;;;;;;;7.03;2.63;;;8.10;99.90;;;;;;5014661;28;20026;-75
2022/04/21 02:23:48;;;;;;;5.85;2.20;;;8.00;99.90;;;;;;5014514;28;20057;-75
2022/04/21 02:26:13;;;;;;;5.72;2.65;;;8.00;99.90;;;;;;5014235;28;20018;-75
2022/04/21 02:28:42;;;;;;;6.22;2.75;;;7.90;99.90;;;;;;5014102;28;20018;-75
2022/04/21 02:31:07;;;;;;;7.43;2.90;;;7.90;99.90;;;;;;5014388;28;20108;-75
2022/04/21 02:33:33;;;;;;;4.95;2.33;;;7.80;99.90;;;;;;5014080;28;20041;-75
2022/04/21 02:35:58;;;;;;;5.65;2.25;;;7.90;99.90;;;;;;5014073;28;20029;-75
2022/04/21 02:38:24;;;;;;;11.00;2.88;;;7.80;99.90;;;;;;5014578;28;20015;-75
2022/04/21 02:40:50;;;;;;;5.70;2.63;;;7.80;99.90;;;;;;5013820;28;20494;-75
2022/04/21 02:43:15;;;;;;;5.60;2.40;;;7.80;99.90;;;;;;5014237;28;20552;-75
2022/04/21 02:45:42;;;;;;;5.35;2.05;;;7.80;99.90;;;;;;5013847;28;20157;-75
2022/04/21 02:48:09;;;;;;;5.38;2.42;;;7.70;99.90;;;;;;5013829;28;20030;-75
2022/04/21 02:50:34;;;;;;;5.57;2.13;;;7.80;99.90;;;;;;5013274;28;20022;-75
2022/04/21 02:53:00;;;;;;;6.45;2.85;;;7.80;99.90;;;;;;5013803;28;20069;-75
2022/04/21 02:58:11;;;;;;;5.65;1.88;;;7.80;99.90;;;;;;5016931;28;20045;-75
2022/04/21 03:00:37;;;;;;;5.75;2.17;;;7.80;99.90;;;;;;5016794;28;20049;-76
2022/04/21 03:03:02;;;;;;;5.22;2.80;;;7.80;99.90;;;;;;5018038;28;20030;-76
2022/04/21 03:05:28;;;;;;;5.68;2.85;;;7.80;99.90;;;;;;5017891;28;20073;-75
2022/04/21 03:07:54;;;;;;;5.10;1.90;;;7.80;99.90;;;;;;5017721;28;20029;-75
2022/04/21 03:10:20;;;;;;;5.35;2.28;;;7.70;99.90;;;;;;5016486;28;20487;-75
2022/04/21 03:12:45;;;;;;;3.78;2.10;;;7.70;99.90;;;;;;5017944;28;20028;-76
2022/04/21 03:15:12;;;;;;;4.75;2.20;;;7.60;99.90;;;;;;5017979;28;20034;-75
2022/04/21 03:17:39;;;;;;;5.43;2.35;;;7.60;99.90;;;;;;5017852;28;20057;-75
2022/04/21 03:20:05;;;;;;;4.85;2.55;;;7.60;99.90;;;;;;5017572;28;20032;-75
2022/04/21 03:25:15;;;;;;;6.13;2.53;;;7.50;99.90;;;;;;5017267;28;20041;-75
2022/04/21 03:27:43;;;;;;;4.82;2.70;;;7.50;99.90;;;;;;5016453;28;20018;-75
2022/04/21 03:30:09;;;;;;;9.00;2.85;;;7.50;99.90;;;;;;5017317;28;20475;-75
2022/04/21 03:32:35;;;;;;;8.38;2.72;;;7.40;99.90;;;;;;5017201;28;20033;-75
2022/04/21 03:35:01;;;;;;;5.88;2.80;;;7.40;99.90;;;;;;5017400;28;20113;-75
2022/04/21 03:37:27;;;;;;;6.32;2.47;;;7.40;99.90;;;;;;5016019;28;20030;-75
2022/04/21 03:39:53;;;;;;;5.15;2.10;;;7.30;99.90;;;;;;5017153;28;20030;-75
2022/04/21 03:42:27;;;;;;;6.50;2.30;;;7.20;99.90;;;;;;5016761;28;20072;-75
2022/04/21 03:44:54;;;;;;;5.60;2.47;;;7.20;99.90;;;;;;5015578;28;20033;-75
2022/04/21 03:47:20;;;;;;;7.63;2.85;;;7.10;99.90;;;;;;5017287;28;20383;-75
2022/04/21 03:49:46;;;;;;;5.43;2.40;;;7.20;99.90;;;;;;5016897;28;20357;-75
2022/04/21 03:52:12;;;;;;;5.72;2.63;;;7.10;99.90;;;;;;5017070;28;20032;-75
2022/04/21 03:54:38;;;;;;;6.85;2.22;;;7.10;99.90;;;;;;5017062;28;20057;-75
2022/04/21 03:57:05;;;;;;;5.00;2.60;;;7.00;99.90;;;;;;5017083;28;20475;-75
2022/04/21 03:59:31;;;;;;;7.68;2.50;;;7.00;99.90;;;;;;5015719;28;20029;-75
2022/04/21 04:02:02;;;;;;;7.70;3.38;;;6.90;99.90;;;;;;5016679;28;20510;-75
2022/04/21 04:04:29;;;;;;;7.68;2.70;;;6.90;99.90;;;;;;5016620;28;20033;-75
2022/04/21 04:12:23;;;;;;;9.27;2.63;;;6.90;99.90;;;;;;5017305;28;20072;-75
2022/04/21 04:14:49;;;;;;;5.70;2.03;;;6.90;99.90;;;;;;5016818;28;20391;-75
2022/04/21 04:17:14;;;;;;;7.28;3.15;;;6.90;99.90;;;;;;5015369;28;20032;-75
2022/04/21 04:19:40;;;;;;;6.90;2.47;;;6.90;99.90;;;;;;5015581;28;20030;-75
2022/04/21 04:22:06;;;;;;;5.35;2.50;;;6.80;99.90;;;;;;5016495;28;20368;-76
2022/04/21 04:24:32;;;;;;;6.07;2.40;;;6.80;99.90;;;;;;5016330;28;20037;-75
2022/04/21 04:26:58;;;;;;;5.53;2.33;;;6.80;99.90;;;;;;5016472;28;20025;-75
2022/04/21 04:29:23;;;;;;;4.15;2.35;;;7.40;99.90;;;;;;5016650;28;20022;-75
2022/04/21 04:31:53;;;;;;;5.15;2.35;;;6.80;99.90;;;;;;5014818;28;20096;-75
2022/04/21 04:34:20;;;;;;;4.38;2.35;;;6.70;99.90;;;;;;5015229;28;20084;-75
2022/04/21 04:36:46;;;;;;;5.25;2.20;;;6.70;99.90;;;;;;5016156;28;20026;-75
2022/04/21 04:39:12;;;;;;;6.07;2.95;;;6.70;99.90;;;;;;5016905;28;20052;-75
2022/04/21 04:44:22;;;;;;;4.72;2.50;;;6.70;99.90;;;;;;5015906;28;20094;-75
2022/04/21 04:46:48;;;;;;;6.30;2.67;;;6.80;99.90;;;;;;5016113;28;20026;-75
2022/04/21 04:49:13;;;;;;;9.75;2.90;;;6.80;99.90;;;;;;5014917;28;20022;-75
2022/04/21 04:51:41;;;;;;;5.57;2.60;;;6.80;99.90;;;;;;5016230;28;20018;-76
2022/04/21 04:54:08;;;;;;;8.00;2.40;;;6.90;99.90;;;;;;5016031;28;20026;-75
2022/04/21 04:56:39;;;;;;;5.07;2.30;;;6.90;99.90;;;;;;5015875;28;20104;-75
2022/04/21 04:59:05;;;;;;;4.78;2.45;;;7.00;99.90;;;;;;5014801;28;20022;-75
2022/04/21 05:01:32;;;;;;;4.97;2.35;;;7.00;99.90;;;;;;5015983;28;20036;-75
2022/04/21 05:04:02;;;;;;;4.45;2.50;;;7.00;99.90;;;;;;5015787;28;20531;-74
2022/04/21 05:06:28;;;;;;;7.72;2.58;;;7.10;99.90;;;;;;5016140;28;20141;-76
2022/04/21 05:08:56;;;;;;;6.93;2.90;;;7.10;99.90;;;;;;5015466;28;20051;-76
2022/04/21 05:11:21;;;;;;;5.20;2.17;;;7.20;99.90;;;;;;5014631;28;20030;-76
2022/04/21 05:13:47;;;;;;;4.40;2.67;;;7.20;99.90;;;;;;5015267;28;20395;-76
2022/04/21 05:16:13;;;;;;;5.15;1.98;;;7.30;99.90;;;;;;5015998;28;20413;-76
2022/04/21 05:18:39;;;;;;;7.68;2.60;;;7.40;99.90;;;;;;5015649;28;20046;-76
2022/04/21 05:21:05;;;;;;;13.30;3.15;;;7.40;99.90;;;;;;5014866;28;20028;-76
2022/04/21 05:23:36;;;;;;;5.18;1.70;;;7.50;99.90;;;;;;5015034;28;20084;-76
2022/04/21 05:26:02;;;;;;;4.45;2.50;;;7.60;99.90;;;;;;5014957;28;20076;-76
2022/04/21 05:28:28;;;;;;;5.97;2.40;;;7.60;99.90;;;;;;5015064;28;20018;-76
2022/04/21 05:30:58;;;;;;;5.95;2.15;;;7.70;99.90;;;;;;5013662;28;20022;-76
2022/04/21 05:33:25;;;;;;;6.93;2.10;;;7.80;99.90;;;;;;5015154;28;20050;-76
2022/04/21 05:35:52;;;;;;;4.70;2.40;;;7.90;99.90;;;;;;5014896;28;20037;-76
2022/04/21 05:38:20;;;;;;;5.80;1.55;;;8.00;99.90;;;;;;5014079;28;20033;-76
2022/04/21 05:40:45;;;;;;;4.03;1.95;;;8.10;99.90;;;;;;5013561;28;20018;-77
2022/04/21 05:43:12;;;;;;;3.50;2.05;;;8.10;99.90;;;;;;5015126;28;20116;-75
2022/04/21 05:45:38;;;;;;;7.85;2.45;;;8.20;99.90;;;;;;5015054;28;20022;-76
2022/04/21 05:48:05;;;;;;;5.50;2.35;;;8.20;99.90;;;;;;5014670;28;20113;-76
2022/04/21 05:50:33;;;;;;;6.35;2.13;;;8.30;99.90;;;;;;5014677;28;20029;-76
2022/04/21 05:53:03;;;;;;;7.95;2.85;;;8.40;99.90;;;;;;5014569;28;20022;-76
2022/04/21 05:55:29;;;;;;;5.03;1.92;;;8.50;99.90;;;;;;5013383;28;20128;-76
2022/04/21 05:57:55;;;;;;;3.90;1.80;;;8.60;99.90;;;;;;5014782;28;20053;-76
2022/04/21 06:00:21;;;;;;;5.75;2.53;;;8.60;99.90;;;;;;5014814;28;20050;-76
2022/04/21 06:02:47;;;;;;;5.30;1.90;;;8.70;99.90;;;;;;5014388;28;20451;-76
2022/04/21 06:05:13;;;;;;;4.50;1.80;;;8.80;99.90;;;;;;5013346;28;20022;-73
2022/04/21 06:07:39;;;;;;;6.05;1.70;;;8.90;99.90;;;;;;5014999;28;20022;-78
2022/04/21 06:10:05;;;;;;;5.47;1.60;;;9.00;99.90;;;;;;5014174;28;20050;-76
2022/04/21 06:12:30;;;;;;;6.07;1.85;;;9.10;99.90;;;;;;5014661;28;20026;-76
2022/04/21 06:14:56;;;;;;;3.42;1.63;;;9.20;99.90;;;;;;5013428;28;20029;-76
2022/04/21 06:17:21;;;;;;;3.22;1.50;;;9.20;99.90;;;;;;5014482;28;20108;-76
2022/04/21 06:19:47;;;;;;;5.03;2.13;;;9.30;99.90;;;;;;5014245;28;20032;-76
2022/04/21 06:22:13;;;;;;;3.00;1.35;;;9.40;99.90;;;;;;5013030;28;20048;-76
2022/04/21 06:24:39;;;;;;;3.47;1.58;;;9.50;99.90;;;;;;5014214;28;20030;-76
2022/04/21 06:27:05;;;;;;;4.75;1.63;;;9.50;99.90;;;;;;5014699;28;20044;-76
2022/04/21 06:29:31;;;;;;;3.15;1.50;;;9.70;99.90;;;;;;5014187;28;20049;-76
2022/04/21 06:31:56;;;;;;;4.47;1.90;;;9.70;99.90;;;;;;5013439;28;20488;-76
2022/04/21 06:34:22;;;;;;;5.72;2.17;;;9.80;99.90;;;;;;5014137;28;20037;-76
2022/04/21 06:36:49;;;;;;;4.20;1.42;;;9.90;99.90;;;;;;5014027;28;20018;-75
2022/04/21 06:39:14;;;;;;;4.05;1.23;;;10.00;99.90;;;;;;5013890;28;20034;-75
2022/04/21 06:41:40;;;;;;;2.10;1.30;;;10.10;99.90;;;;;;5014114;28;20037;-75
2022/04/21 06:49:34;;;;;;;4.70;1.73;;;10.30;99.90;;;;;;5014163;28;20032;-75
2022/04/21 06:51:59;;;;;;;1.85;1.08;;;10.50;99.90;;;;;;5013649;28;20022;-75
2022/04/21 06:54:25;;;;;;;5.20;1.17;;;10.60;99.90;;;;;;5012282;28;20108;-75
2022/04/21 06:56:50;;;;;;;3.60;1.58;;;10.70;99.90;;;;;;5013497;28;20061;-75
2022/04/21 06:59:17;;;;;;;7.18;1.77;;;10.80;99.90;;;;;;5013505;28;20018;-75
2022/04/21 07:01:46;;;;;;;23.75;1.67;;;11.00;99.90;;;;;;5013395;28;20072;-75
2022/04/21 07:04:12;;;;;;;2.97;1.70;;;11.10;99.90;;;;;;5013445;28;20036;-75
2022/04/21 07:06:38;;;;;;;2.03;1.02;;;11.20;99.90;;;;;;5013565;28;20022;-75
2022/04/21 07:09:03;;;;;;;2.90;1.48;;;11.40;99.90;;;;;;5013567;28;20053;-75
2022/04/21 07:11:29;;;;;;;3.85;1.42;;;11.50;99.90;;;;;;5013337;28;20117;-75
2022/04/21 07:13:55;;;;;;;6.32;1.85;;;11.50;99.90;;;;;;5013479;28;20018;-75
2022/04/21 07:16:21;;;;;;;3.15;1.25;;;11.60;99.90;;;;;;5013715;28;20026;-75
2022/04/21 07:18:46;;;;;;;4.25;1.23;;;11.60;99.90;;;;;;5013576;28;20025;-75
2022/04/21 07:21:12;;;;;;;6.15;1.20;;;11.80;99.90;;;;;;5013645;28;20467;-75
2022/04/21 07:23:39;;;;;;;3.42;1.65;;;11.90;99.90;;;;;;5021831;23;20533;-75
2022/04/21 07:26:05;;;;;;;4.47;1.13;;;11.90;99.90;;;;;;5013306;28;20037;-72
2022/04/21 07:28:30;;;;;;;3.53;1.30;;;12.00;99.90;;;;;;5013176;28;20025;-75
2022/04/21 07:30:56;;;;;;;3.65;1.42;;;12.10;99.90;;;;;;5013240;28;20038;-76
2022/04/21 07:33:21;;;;;;;3.45;1.35;;;12.20;99.90;;;;;;5013390;28;20014;-75
2022/04/21 07:35:47;;;;;;;3.35;1.10;;;12.30;99.90;;;;;;5013148;28;20103;-75
2022/04/21 07:38:12;;;;;;;1.17;0.70;;;12.30;99.90;;;;;;5013409;28;20080;-75
2022/04/21 07:40:38;;;;;;;3.00;1.20;;;12.40;99.90;;;;;;5012962;28;20029;-75
2022/04/21 07:43:08;;;;;;;2.47;0.90;;;12.40;99.90;;;;;;5013570;28;20030;-75
2022/04/21 07:45:38;;;;;;;3.63;1.70;;;12.50;99.90;;;;;;5015740;28;20026;-75
2022/04/21 07:48:04;;;;;;;4.93;1.40;;;12.50;99.90;;;;;;5016654;28;20029;-75
2022/04/21 07:50:30;;;;;;;3.83;1.67;;;12.60;99.90;;;;;;5016996;28;20029;-75
2022/04/21 07:53:14;;;;;;;3.63;1.35;;;12.70;99.90;;;;;;5015404;28;20089;-75
2022/04/21 07:55:44;;;;;;;2.88;1.15;;;12.80;99.90;;;;;;5016847;28;20360;-75
2022/04/21 07:58:10;;;;;;;3.50;1.25;;;12.90;99.90;;;;;;5016742;28;20034;-75
2022/04/21 08:00:38;;;;;;;3.80;1.17;;;12.90;99.90;;;;;;5016729;28;20032;-75
2022/04/21 08:03:04;;;;;;;7.38;2.22;;;12.40;99.90;;;;;;5016408;28;20030;-75
2022/04/21 08:05:30;;;;;;;2.47;1.13;;;13.20;99.90;;;;;;5015122;28;20026;-75
2022/04/21 08:07:56;;;;;;;3.50;1.25;;;13.30;99.90;;;;;;5016641;28;20022;-75
2022/04/21 08:10:23;;;;;;;2.65;0.90;;;13.40;99.60;;;;;;5016552;28;20018;-75
2022/04/21 08:12:53;;;;;;;2.50;1.08;;;13.50;99.00;;;;;;5016301;28;20045;-75
2022/04/21 08:15:27;;;;;;;2.45;1.00;;;13.60;98.00;;;;;;5016493;28;20033;-75
2022/04/21 08:17:55;;;;;;;3.50;1.10;;;13.70;97.60;;;;;;5016038;28;20033;-75
2022/04/21 08:20:22;;;;;;;4.18;0.95;;;13.90;97.50;;;;;;5015017;28;20022;-75
2022/04/21 08:22:48;;;;;;;3.55;0.70;;;14.00;97.00;;;;;;5016199;28;20034;-75
2022/04/21 08:33:26;;;;;;;7.03;0.88;;;14.50;92.60;;;;;;5016388;28;20033;-75
2022/04/21 08:35:58;;;;;;;3.78;1.27;;;14.70;92.30;;;;;;5015833;28;20072;-75
2022/04/21 08:38:27;;;;;;;5.07;0.70;;;14.80;92.10;;;;;;5016145;28;20033;-75
2022/04/21 08:43:22;;;;;;;;;;;15.00;90.10;;;;;;5015001;28;20049;-74
2022/04/21 08:45:49;;;;;;;3.45;0.47;;;15.20;86.20;;;;;;5015478;28;19917;-74
2022/04/21 08:48:17;;;;;;;2.95;0.98;;;15.20;82.50;;;;;;5015778;28;20026;-75
2022/04/21 08:50:43;;;;;;;0.60;0.15;;;15.20;79.20;;;;;;5015499;28;20026;-74
2022/04/21 08:53:10;;;;;;;1.30;0.35;;;15.30;74.70;;;;;;5015513;28;20029;-75
2022/04/21 08:55:38;;;;;;;1.48;0.10;;;15.40;69.20;;;;;;5015097;28;20026;-75
2022/04/21 08:58:04;;;;;;;2.40;0.25;;;15.50;68.70;;;;;;5015723;28;20072;-74
2022/04/21 09:00:31;;;;;;;0.98;0.30;;;15.60;67.40;;;;;;5015269;28;20029;-74
2022/04/21 09:03:03;;;;;;;0.30;0.00;;;16.00;65.20;;;;;;5015172;28;20033;-74
2022/04/21 09:05:29;;;;;;;1.48;0.10;;;15.80;62.80;;;;;;5015250;28;20109;-75
2022/04/21 09:07:57;;;;;;;1.90;0.10;;;15.90;61.70;;;;;;5015235;28;20061;-75
2022/04/21 09:10:23;;;;;;;0.38;0.10;;;15.90;59.70;;;;;;5015147;28;20046;-75
2022/04/21 09:12:55;;;;;;;1.85;0.10;;;16.00;58.50;;;;;;5014869;28;20036;-74
2022/04/21 09:15:25;;;;;;;0.57;0.13;;;16.10;58.20;;;;;;5014975;28;20623;-75
2022/04/21 09:17:58;;;;;;;0.47;0.15;;;16.10;56.90;;;;;;5014900;28;20052;-75
2022/04/21 09:20:39;;;;;;;0.77;0.20;;;16.10;58.10;;;;;;5014838;28;20433;-74
2022/04/21 09:23:07;;;;;;;1.83;0.20;;;16.30;59.10;;;;;;4997332;28;20395;-74
2022/04/21 09:25:47;;;;;;;0.57;0.25;;;16.30;56.50;;;;;;5014701;28;20026;-74
2022/04/21 09:28:24;;;;;;;0.63;0.10;;;16.40;55.90;;;;;;5015044;28;20429;-75
2022/04/21 09:30:58;;;;;;;0.65;0.00;;;16.50;54.40;;;;;;5014562;28;20025;-75
2022/04/21 09:33:35;;;;;;;0.65;0.10;;;16.50;53.30;;;;;;4997342;28;20041;-75
2022/04/21 09:36:03;;;;;;;0.20;0.00;;;16.50;53.40;;;;;;4997000;28;20076;-75
2022/04/21 09:38:29;;;;;;;1.17;0.00;;;16.50;54.30;;;;;;5014765;28;20036;-75
2022/04/21 09:40:55;;;;;;;0.35;0.20;;;16.60;53.90;;;;;;4996791;28;20109;-75
2022/04/21 09:43:28;;;;;;;1.58;0.00;;;16.60;54.60;;;;;;5014348;28;20120;-75
2022/04/21 09:46:09;;;;;;;2.30;0.25;;;16.80;53.10;;;;;;5014242;28;20022;-75
2022/04/21 09:48:36;;;;;;;0.50;0.05;;;16.90;51.50;;;;;;5014614;28;20475;-74
2022/04/21 09:51:10;;;;;;;0.40;0.00;;;17.00;50.80;;;;;;5014209;28;20014;-74
2022/04/21 09:54:01;;;;;;;0.50;0.10;;;17.10;49.40;;;;;;5014308;28;20129;-75
2022/04/21 09:56:39;;;;;;;0.95;0.00;;;17.20;49.30;;;;;;4996612;28;20041;-74
2022/04/21 09:59:08;;;;;;;0.50;0.00;;;17.10;47.40;;;;;;5014753;28;20045;-75
2022/04/21 10:01:41;;;;;;;0.55;0.00;;;17.10;49.20;;;;;;5014092;28;20018;-75
2022/04/21 10:04:12;;;;;;;0.50;0.00;;;17.30;49.70;;;;;;5014563;28;20030;-75
2022/04/21 10:06:38;;;;;;;2.15;0.15;;;17.40;48.90;;;;;;5013389;28;20022;-74
2022/04/21 10:09:05;;;;;;;0.10;0.03;;;17.40;47.90;;;;;;4996569;28;20022;-74
2022/04/21 10:11:31;;;;;;;3.90;0.00;;;17.50;47.00;;;;;;5014543;28;20053;-75
2022/04/21 10:13:57;;;;;;;0.63;0.08;;;17.50;47.40;;;;;;5013900;28;20053;-75
2022/04/21 10:16:24;;;;;;;2.65;0.15;;;17.50;47.40;;;;;;5013754;28;20495;-74
2022/04/21 10:18:54;;;;;;;0.50;0.28;;;17.60;48.00;;;;;;4996287;28;20026;-75
2022/04/21 10:21:26;;;;;;;0.10;0.00;;;17.70;47.90;;;;;;5013751;28;20025;-75
2022/04/21 10:23:53;;;;;;;0.35;0.00;;;17.70;47.10;;;;;;4996169;28;20034;-75
2022/04/21 10:26:34;;;;;;;0.45;0.10;;;17.70;49.40;;;;;;5013667;28;20037;-75
2022/04/21 10:29:10;;;;;;;3.92;0.20;;;17.80;47.20;;;;;;4996073;28;20037;-75
2022/04/21 10:31:51;;;;;;;0.22;0.10;;;17.90;46.70;;;;;;5013628;28;20036;-75
2022/04/21 10:34:37;;;;;;;0.20;0.00;;;18.00;47.30;;;;;;4996098;28;20030;-74
2022/04/21 10:37:22;;;;;;;0.30;0.00;;;18.10;46.90;;;;;;5013619;28;20033;-75
2022/04/21 10:40:04;;;;;;;0.35;0.00;;;18.30;46.70;;;;;;5013557;28;20026;-75
2022/04/21 10:42:50;;;;;;;0.20;0.00;;;18.50;46.50;;;;;;4995752;28;20460;-75
2022/04/21 10:45:21;;;;;;;0.25;0.00;;;18.60;46.20;;;;;;5014079;28;20117;-74
2022/04/21 10:48:05;;;;;;;2.05;0.00;;;18.70;45.50;;;;;;5013504;28;20040;-75
2022/04/21 10:50:31;;;;;;;0.50;0.10;;;18.90;46.80;;;;;;5013638;28;20022;-74
2022/04/21 10:58:35;;;;;;;1.55;0.00;;;18.90;43.80;;;;;;5013853;28;20088;-75
2022/04/21 11:01:27;;;;;;;0.20;0.00;;;18.90;44.10;;;;;;5013838;28;20036;-75
2022/04/21 11:04:11;;;;;;;0.00;0.00;;;19.10;43.80;;;;;;4995688;28;20068;-75
2022/04/21 11:06:42;;;;;;;3.10;0.17;;;19.20;43.20;;;;;;5013871;28;20044;-75
2022/04/21 11:09:08;;;;;;;0.45;0.00;;;19.50;43.80;;;;;;4995823;28;20033;-75
2022/04/21 11:11:47;;;;;;;0.20;0.00;;;19.60;42.60;;;;;;5013247;28;20105;-75
2022/04/21 11:14:31;;;;;;;0.28;0.08;;;19.70;43.80;;;;;;4995728;28;20033;-75
2022/04/21 11:17:01;;;;;;;0.82;0.00;;;19.80;43.00;;;;;;4995617;28;20041;-75
2022/04/21 11:19:31;;;;;;;5.38;0.50;;;20.00;43.30;;;;;;5016417;28;20026;-75
2022/04/21 11:21:58;;;;;;;0.20;0.03;;;20.10;44.40;;;;;;4999379;28;20503;-75
2022/04/21 11:24:25;;;;;;;1.75;0.10;;;20.30;44.30;;;;;;5017280;28;20022;-75
2022/04/21 11:26:55;;;;;;;0.75;0.17;;;20.60;44.90;;;;;;5016947;28;20471;-75
2022/04/21 11:29:21;;;;;;;0.10;0.00;;;20.80;42.40;;;;;;5016897;28;20022;-75
2022/04/21 11:31:47;;;;;;;0.40;0.10;;;20.90;42.50;;;;;;5016812;28;20025;-75
2022/04/21 11:34:22;;;;;;;1.15;0.47;;;21.00;42.40;;;;;;5016807;28;20505;-75
2022/04/21 11:36:51;;;;;;;0.68;0.13;;;20.90;43.00;;;;;;5017444;28;20022;-75
2022/04/21 11:39:17;;;;;;;1.92;0.10;;;20.90;43.20;;;;;;4999161;28;20034;-75
2022/04/21 11:41:44;;;;;;;0.90;0.20;;;21.10;43.70;;;;;;5016834;28;20491;-75
2022/04/21 11:44:23;;;;;;;0.88;0.30;;;21.20;42.10;;;;;;5016724;28;20034;-75
2022/04/21 11:46:49;;;;;;;2.33;0.40;;;21.30;41.60;;;;;;5017181;28;20037;-75
2022/04/21 11:49:15;;;;;;;0.15;0.08;;;21.10;40.80;;;;;;5016645;28;20021;-75
2022/04/21 11:51:41;;;;;;;1.20;0.10;;;21.00;41.80;;;;;;4998920;28;20121;-75
2022/04/21 11:54:09;;;;;;;0.60;0.20;;;21.10;41.50;;;;;;5016740;28;20021;-74
2022/04/21 11:56:35;;;;;;;0.25;0.00;;;21.10;40.60;;;;;;5016530;28;20014;-74
2022/04/21 11:59:08;;;;;;;3.03;0.10;;;21.20;40.90;;;;;;5016669;28;20108;-75
2022/04/21 12:07:15;;;;;;;0.73;0.10;;;21.60;41.70;;;;;;5017135;28;20033;-75
2022/04/21 12:09:41;;;;;;;2.22;0.05;;;21.60;41.60;;;;;;5016508;28;20024;-74
2022/04/21 12:12:08;;;;;;;0.20;0.00;;;21.70;40.90;;;;;;5016068;28;20104;-75
2022/04/21 12:14:35;;;;;;;0.10;0.00;;;21.70;41.00;;;;;;5016145;28;20022;-74
2022/04/21 12:17:06;;;;;;;0.20;0.00;;;21.90;40.90;;;;;;5016072;28;20050;-74
2022/04/21 12:19:33;;;;;;;1.92;0.38;;;22.00;41.00;;;;;;4998493;28;20022;-75
2022/04/21 12:22:09;;;;;;;0.50;0.00;;;22.20;40.20;;;;;;5015797;28;20399;-74
2022/04/21 12:24:36;;;;;;;0.73;0.10;;;22.30;41.10;;;;;;5016242;28;20026;-75
2022/04/21 12:27:17;;;;;;;1.90;0.30;;;22.20;40.10;;;;;;4998260;28;20029;-75
2022/04/21 12:30:02;;;;;;;0.30;0.00;;;22.30;39.70;;;;;;5015031;28;20435;-74
2022/04/21 12:32:29;;;;;;;1.10;0.05;;;22.30;39.90;;;;;;4998128;28;20518;-75
2022/04/21 12:34:58;;;;;;;0.00;0.00;;;22.50;40.70;;;;;;5015803;28;20502;-75
2022/04/21 12:37:37;;;;;;;0.10;0.00;;;22.70;36.80;;;;;;5015703;28;20431;-75
2022/04/21 12:40:13;;;;;;;3.10;0.00;;;22.70;37.30;;;;;;5015651;28;20061;-75
2022/04/21 12:42:40;;;;;;;4.22;0.30;;;22.30;37.40;;;;;;5015425;28;20049;-74
2022/04/21 12:45:08;;;;;;;0.30;0.00;;;22.00;38.70;;;;;;5015720;28;20026;-74
2022/04/21 12:47:47;;;;;;;0.75;0.00;;;22.10;38.20;;;;;;5015512;28;20022;-75
2022/04/21 12:50:20;;;;;;;1.92;0.00;;;22.30;38.40;;;;;;4997818;28;20124;-75
2022/04/21 12:52:53;;;;;;;0.30;0.00;;;22.50;38.00;;;;;;5015292;28;20022;-74
2022/04/21 12:55:21;;;;;;;1.42;0.28;;;22.50;36.30;;;;;;5015621;28;20105;-74
2022/04/21 12:58:11;;;;;;;0.38;0.10;;;22.50;36.80;;;;;;5015219;28;20022;-75
2022/04/21 13:00:45;;;;;;;0.20;0.00;;;22.70;36.50;;;;;;5015204;28;20026;-74
2022/04/21 13:03:13;;;;;;;1.35;0.10;;;22.90;36.10;;;;;;5015246;28;20535;-75
2022/04/21 13:05:52;;;;;;;1.45;0.00;;;23.00;36.40;;;;;;4997583;28;20506;-74
2022/04/21 13:08:18;;;;;;;0.15;0.10;;;23.20;35.70;;;;;;5015065;28;20018;-75
2022/04/21 13:10:44;;;;;;;0.28;0.08;;;23.40;35.20;;;;;;5014974;28;20029;-75
2022/04/21 13:13:10;;;;;;;0.25;0.00;;;23.50;36.10;;;;;;5015118;28;20022;-75
2022/04/21 13:15:36;;;;;;;1.20;0.00;;;23.70;36.90;;;;;;5015195;28;20025;-75
2022/04/21 13:18:01;;;;;;;0.98;0.00;;;23.70;33.60;;;;;;4997341;28;20022;-74
2022/04/21 13:23:11;;;;;;;0.15;0.00;;;23.90;33.80;;;;;;5015362;28;20432;-75
2022/04/21 13:25:37;;;;;;;0.45;0.00;;;23.90;34.50;;;;;;5015152;28;20105;-74
2022/04/21 13:28:02;;;;;;;0.52;0.00;;;24.10;34.50;;;;;;5014934;28;20049;-74
2022/04/21 13:30:28;;;;;;;0.00;0.00;;;24.00;33.40;;;;;;4997111;28;20364;-74
2022/04/21 13:35:40;;;;;;;0.20;0.00;;;24.30;33.80;;;;;;5014804;28;20061;-74
2022/04/21 13:38:06;;;;;;;0.25;0.00;;;24.30;33.90;;;;;;5015115;28;20030;-74
2022/04/21 13:40:32;;;;;;;0.80;0.13;;;24.20;33.80;;;;;;4996981;28;20060;-75
2022/04/21 13:42:58;;;;;;;0.43;0.00;;;24.10;34.30;;;;;;5014182;28;20037;-74
2022/04/21 13:45:24;;;;;;;0.43;0.00;;;24.20;35.40;;;;;;5014661;28;20032;-74
2022/04/21 13:47:49;;;;;;;0.20;0.00;;;24.40;34.80;;;;;;4996852;28;20054;-74
2022/04/21 13:50:15;;;;;;;3.60;0.00;;;24.50;34.40;;;;;;5014905;28;20037;-74